Bergamot Ace — ZGAS5 — position and weather

sailwx.info

Track history (hours):
 
Tides and Currents Weather Stations Pressure Air Temp Water Temp Dewpoint Dewpoint Depression Visibility Wind Speed Wind Dir Waves Ship Positions

Bergamot Ace

Last reported at 2017-Nov-09 14:29 UTC. Time now 2017-Nov-23 18:48 UTC.
Position S 26°40' E 153°13'.
Warning: this ship's position is 14 days out of date.

Length 186 m; draft 6.7 m.

Type: Cargo ship. MMSI: 319740000.

Date/timePositionNaut miles runAvg speedWind from/ knotsBaromVisibWave heightAir tempDewpointWater temp
2017-Nov-09 14:29S 26°40' E 153°13'6 9.8
2017-Nov-09 13:52S 26°45' E 153°11'614.6
2017-Nov-09 13:30S 26°51' E 153°09'917.2
2017-Nov-09 13:00S 26°58' E 153°14'815.8
2017-Nov-09 12:30S 27°05' E 153°19'713.3
2017-Nov-09 12:00S 27°11' E 153°18'815.3
2017-Nov-09 11:30S 27°18' E 153°13'510.9
2017-Nov-09 11:00S 27°22' E 153°10'0 0.7
2017-Nov-09 10:30S 27°23' E 153°10'0 0.0
2017-Nov-09 10:00S 27°23' E 153°10'0 0.0
2017-Nov-09 09:30S 27°23' E 153°10'0 0.0
2017-Nov-09 08:57S 27°23' E 153°10'0 0.0
2017-Nov-09 08:24S 27°23' E 153°10'0 0.0
2017-Nov-09 07:57S 27°23' E 153°10'0 0.0
2017-Nov-09 07:30S 27°23' E 153°10'0 0.0
2017-Nov-09 07:00S 27°23' E 153°10'0 0.0
2017-Nov-09 06:30S 27°23' E 153°10'0 0.0
2017-Nov-09 06:00S 27°23' E 153°10'0 0.0
2017-Nov-09 05:30S 27°23' E 153°10'0 0.0
2017-Nov-09 04:57S 27°23' E 153°10'0 0.0
2017-Nov-09 04:30S 27°23' E 153°10'0 0.0
2017-Nov-09 04:00S 27°23' E 153°10'0 0.0
2017-Nov-09 03:30S 27°23' E 153°10'0 0.0
2017-Nov-09 03:00S 27°23' E 153°10'0 0.0
2017-Nov-09 02:30S 27°23' E 153°10'0 0.0
2017-Nov-09 02:00S 27°23' E 153°10'0 0.0
2017-Nov-09 01:30S 27°23' E 153°10'0 0.0
2017-Nov-09 01:00S 27°23' E 153°10'0 0.0
2017-Nov-09 00:27S 27°23' E 153°10'0 0.4
2017-Nov-09 00:00S 27°23' E 153°10'3 6.4
2017-Nov-08 23:30S 27°20' E 153°12'510.9
2017-Nov-08 23:00S 27°16' E 153°16'510.6
2017-Nov-08 22:30S 27°13' E 153°20'714.7
2017-Nov-08 22:01S 27°05' E 153°19'815.7
2017-Nov-08 21:30S 26°59' E 153°14'816.3
2017-Nov-08 21:00S 26°52' E 153°09'11 5.6
2017-Nov-08 19:06S 26°44' E 153°18'111.3
2017-Nov-08 19:00S 26°45' E 153°19'611.5
2017-Nov-08 18:29S 26°49' E 153°24'611.5
2017-Nov-08 18:00S 26°53' E 153°29'611.7
2017-Nov-08 17:29S 26°57' E 153°34'611.5
2017-Nov-08 17:00S 27°01' E 153°38'711.9
2017-Nov-08 16:27S 27°07' E 153°40'512.4
2017-Nov-08 16:00S 27°13' E 153°40'612.4
2017-Nov-08 15:30S 27°19' E 153°41'611.9
2017-Nov-08 15:00S 27°25' E 153°41'712.8
2017-Nov-08 14:26S 27°32' E 153°42'613.0
2017-Nov-08 14:00S 27°38' E 153°42'713.6
2017-Nov-08 13:30S 27°44' E 153°43'714.3
2017-Nov-08 13:00S 27°51' E 153°43'815.5
2017-Nov-08 12:30S 27°59' E 153°43'815.5
2017-Nov-08 12:00S 28°07' E 153°44'815.4
2017-Nov-08 11:30S 28°15' E 153°45'815.4
2017-Nov-08 11:00S 28°22' E 153°45'815.5
2017-Nov-08 10:30S 28°30' E 153°46'815.5
2017-Nov-08 10:00S 28°38' E 153°46'23917.4
2017-Nov-07 20:16S 32°31' E 152°43'417.3
2017-Nov-07 20:00S 32°35' E 152°41'817.0
2017-Nov-07 19:30S 32°42' E 152°37'816.5
2017-Nov-07 19:00S 32°50' E 152°33'816.2
2017-Nov-07 18:30S 32°58' E 152°29'816.2
2017-Nov-07 18:00S 33°05' E 152°26'816.0
2017-Nov-07 17:30S 33°12' E 152°22'33917.2
2017-Nov-06 21:45S 38°13' E 149°09'518.0
2017-Nov-06 21:30S 38°16' E 149°05'918.1
2017-Nov-06 21:00S 38°22' E 148°56'917.9
2017-Nov-06 20:30S 38°28' E 148°47'187 5.7
2017-Nov-05 11:25S 37°51' E 144°54'0 0.1
2017-Nov-05 09:02S 37°51' E 144°55'2 4.7
2017-Nov-05 08:41S 37°52' E 144°55'212.5
2017-Nov-05 08:30S 37°55' E 144°55'714.3
2017-Nov-05 07:59S 38°02' E 144°55'18011.4
2017-Nov-04 16:07S 38°30' E 148°42'316.8
2017-Nov-04 15:58S 38°29' E 148°45'816.6
2017-Nov-04 15:30S 38°24' E 148°53'816.5
2017-Nov-04 15:01S 38°19' E 149°01'285 6.7
2017-Nov-02 20:31S 34°03' E 151°35'0 8.0
2017-Nov-02 20:28S 34°02' E 151°35'611.5
2017-Nov-02 19:59S 33°57' E 151°37'711.6
2017-Nov-02 19:22S 33°50' E 151°39'511.0
2017-Nov-02 18:53S 33°45' E 151°41'510.9
2017-Nov-02 18:26S 33°40' E 151°43'510.5
2017-Nov-02 17:59S 33°36' E 151°45'2110.5
2017-Nov-02 15:57S 33°16' E 151°55'410.1
2017-Nov-02 15:30S 33°13' E 151°58'611.2
2017-Nov-02 15:00S 33°09' E 152°03'612.2
2017-Nov-02 14:31S 33°04' E 152°08'714.3
2017-Nov-02 14:01S 32°59' E 152°13'714.1
2017-Nov-02 13:30S 32°54' E 152°19'713.6
2017-Nov-02 13:00S 32°49' E 152°24'713.8
2017-Nov-02 12:30S 32°43' E 152°30'713.7
2017-Nov-02 12:00S 32°38' E 152°35'612.9
2017-Nov-02 11:30S 32°33' E 152°40'712.4
2017-Nov-02 10:57S 32°27' E 152°44'22513.9
2017-Nov-01 18:46S 28°48' E 153°44'415.4
2017-Nov-01 18:30S 28°44' E 153°44'  
Track history (hours):
 
Tides and Currents Weather Stations Pressure Air Temp Water Temp Dewpoint Dewpoint Depression Visibility Wind Speed Wind Dir Waves Ship Positions

Bergamot Ace

Last reported at 2017-Nov-09 14:29 UTC. Time now 2017-Nov-23 18:48 UTC.
Position S 26°40' E 153°13'.
Warning: this ship's position is 14 days out of date.

Length 186 m; draft 6.7 m.

Type: Cargo ship. MMSI: 319740000.

Date/timePositionNaut miles runAvg speedWind from/ knotsBaromVisibWave heightAir tempDewpointWater temp
2017-Nov-09 14:29S 26°40' E 153°13'6 9.8
2017-Nov-09 13:52S 26°45' E 153°11'614.6
2017-Nov-09 13:30S 26°51' E 153°09'917.2
2017-Nov-09 13:00S 26°58' E 153°14'815.8
2017-Nov-09 12:30S 27°05' E 153°19'713.3
2017-Nov-09 12:00S 27°11' E 153°18'815.3
2017-Nov-09 11:30S 27°18' E 153°13'510.9
2017-Nov-09 11:00S 27°22' E 153°10'0 0.7
2017-Nov-09 10:30S 27°23' E 153°10'0 0.0
2017-Nov-09 10:00S 27°23' E 153°10'0 0.0
2017-Nov-09 09:30S 27°23' E 153°10'0 0.0
2017-Nov-09 08:57S 27°23' E 153°10'0 0.0
2017-Nov-09 08:24S 27°23' E 153°10'0 0.0
2017-Nov-09 07:57S 27°23' E 153°10'0 0.0
2017-Nov-09 07:30S 27°23' E 153°10'0 0.0
2017-Nov-09 07:00S 27°23' E 153°10'0 0.0
2017-Nov-09 06:30S 27°23' E 153°10'0 0.0
2017-Nov-09 06:00S 27°23' E 153°10'0 0.0
2017-Nov-09 05:30S 27°23' E 153°10'0 0.0
2017-Nov-09 04:57S 27°23' E 153°10'0 0.0
2017-Nov-09 04:30S 27°23' E 153°10'0 0.0
2017-Nov-09 04:00S 27°23' E 153°10'0 0.0
2017-Nov-09 03:30S 27°23' E 153°10'0 0.0
2017-Nov-09 03:00S 27°23' E 153°10'0 0.0
2017-Nov-09 02:30S 27°23' E 153°10'0 0.0
2017-Nov-09 02:00S 27°23' E 153°10'0 0.0
2017-Nov-09 01:30S 27°23' E 153°10'0 0.0
2017-Nov-09 01:00S 27°23' E 153°10'0 0.0
2017-Nov-09 00:27S 27°23' E 153°10'0 0.4
2017-Nov-09 00:00S 27°23' E 153°10'3 6.4
2017-Nov-08 23:30S 27°20' E 153°12'510.9
2017-Nov-08 23:00S 27°16' E 153°16'510.6
2017-Nov-08 22:30S 27°13' E 153°20'714.7
2017-Nov-08 22:01S 27°05' E 153°19'815.7
2017-Nov-08 21:30S 26°59' E 153°14'816.3
2017-Nov-08 21:00S 26°52' E 153°09'11 5.6
2017-Nov-08 19:06S 26°44' E 153°18'111.3
2017-Nov-08 19:00S 26°45' E 153°19'611.5
2017-Nov-08 18:29S 26°49' E 153°24'611.5
2017-Nov-08 18:00S 26°53' E 153°29'611.7
2017-Nov-08 17:29S 26°57' E 153°34'611.5
2017-Nov-08 17:00S 27°01' E 153°38'711.9
2017-Nov-08 16:27S 27°07' E 153°40'512.4
2017-Nov-08 16:00S 27°13' E 153°40'612.4
2017-Nov-08 15:30S 27°19' E 153°41'611.9
2017-Nov-08 15:00S 27°25' E 153°41'712.8
2017-Nov-08 14:26S 27°32' E 153°42'613.0
2017-Nov-08 14:00S 27°38' E 153°42'713.6
2017-Nov-08 13:30S 27°44' E 153°43'714.3
2017-Nov-08 13:00S 27°51' E 153°43'815.5
2017-Nov-08 12:30S 27°59' E 153°43'815.5
2017-Nov-08 12:00S 28°07' E 153°44'815.4
2017-Nov-08 11:30S 28°15' E 153°45'815.4
2017-Nov-08 11:00S 28°22' E 153°45'815.5
2017-Nov-08 10:30S 28°30' E 153°46'815.5
2017-Nov-08 10:00S 28°38' E 153°46'23917.4
2017-Nov-07 20:16S 32°31' E 152°43'417.3
2017-Nov-07 20:00S 32°35' E 152°41'817.0
2017-Nov-07 19:30S 32°42' E 152°37'816.5
2017-Nov-07 19:00S 32°50' E 152°33'816.2
2017-Nov-07 18:30S 32°58' E 152°29'816.2
2017-Nov-07 18:00S 33°05' E 152°26'816.0
2017-Nov-07 17:30S 33°12' E 152°22'33917.2
2017-Nov-06 21:45S 38°13' E 149°09'518.0
2017-Nov-06 21:30S 38°16' E 149°05'918.1
2017-Nov-06 21:00S 38°22' E 148°56'917.9
2017-Nov-06 20:30S 38°28' E 148°47'187 5.7
2017-Nov-05 11:25S 37°51' E 144°54'0 0.1
2017-Nov-05 09:02S 37°51' E 144°55'2 4.7
2017-Nov-05 08:41S 37°52' E 144°55'212.5
2017-Nov-05 08:30S 37°55' E 144°55'714.3
2017-Nov-05 07:59S 38°02' E 144°55'18011.4
2017-Nov-04 16:07S 38°30' E 148°42'316.8
2017-Nov-04 15:58S 38°29' E 148°45'816.6
2017-Nov-04 15:30S 38°24' E 148°53'816.5
2017-Nov-04 15:01S 38°19' E 149°01'285 6.7
2017-Nov-02 20:31S 34°03' E 151°35'0 8.0
2017-Nov-02 20:28S 34°02' E 151°35'611.5
2017-Nov-02 19:59S 33°57' E 151°37'711.6
2017-Nov-02 19:22S 33°50' E 151°39'511.0
2017-Nov-02 18:53S 33°45' E 151°41'510.9
2017-Nov-02 18:26S 33°40' E 151°43'510.5
2017-Nov-02 17:59S 33°36' E 151°45'2110.5
2017-Nov-02 15:57S 33°16' E 151°55'410.1
2017-Nov-02 15:30S 33°13' E 151°58'611.2
2017-Nov-02 15:00S 33°09' E 152°03'612.2
2017-Nov-02 14:31S 33°04' E 152°08'714.3
2017-Nov-02 14:01S 32°59' E 152°13'714.1
2017-Nov-02 13:30S 32°54' E 152°19'713.6
2017-Nov-02 13:00S 32°49' E 152°24'713.8
2017-Nov-02 12:30S 32°43' E 152°30'713.7
2017-Nov-02 12:00S 32°38' E 152°35'612.9
2017-Nov-02 11:30S 32°33' E 152°40'712.4
2017-Nov-02 10:57S 32°27' E 152°44'22513.9
2017-Nov-01 18:46S 28°48' E 153°44'415.4
2017-Nov-01 18:30S 28°44' E 153°44'  

Dump ship's entire track history